Northern Highway — 3EVE6 — position and weather

sailwx.info

Track history (hours):
 
Tides and Currents Weather Stations Pressure Air Temp Water Temp Dewpoint Dewpoint Depression Visibility Wind Speed Wind Dir Waves Ship Positions

Northern Highway

Last reported at 2014-Oct-21 03:34 UTC. Time now 2014-Oct-24 23:11 UTC.
Position S 32°52' W 071°51'.

Length 188 m; draft 7 m.

Type: Cargo ship. MMSI: 371608000.

Date/timePositionNaut miles runAvg speedWind from/ knotsBaromVisibWave heightAir tempDewpointWater temp
2014-Oct-21 03:34S 32°52' W 071°51'1515.2
2014-Oct-21 02:33S 32°60' W 071°36'1 0.9
2014-Oct-21 01:28S 33°01' W 071°36'0 0.1
2014-Oct-20 23:16S 33°01' W 071°36'0 0.0
2014-Oct-20 21:20S 33°01' W 071°36'0 0.0
2014-Oct-20 20:16S 33°01' W 071°36'0 0.0
2014-Oct-20 18:25S 33°01' W 071°36'0 0.1
2014-Oct-20 17:31S 33°01' W 071°36'0 0.0
2014-Oct-20 16:16S 33°01' W 071°36'0 0.0
2014-Oct-20 15:22S 33°01' W 071°36'0 0.0
2014-Oct-20 14:31S 33°01' W 071°36'0 0.0
2014-Oct-20 13:31S 33°01' W 071°36'0 0.0
2014-Oct-20 11:31S 33°01' W 071°36'0 0.0
2014-Oct-20 06:16S 33°01' W 071°36'0 0.0
2014-Oct-20 05:19S 33°01' W 071°36'0 0.0
2014-Oct-20 03:22S 33°01' W 071°36'0 0.0
2014-Oct-19 23:13S 33°01' W 071°36'0 0.1
2014-Oct-19 22:05S 33°01' W 071°36'2 3.1
2014-Oct-19 21:33S 32°59' W 071°35'0 0.1
2014-Oct-19 20:33S 32°59' W 071°35'0 0.0
2014-Oct-19 19:09S 32°59' W 071°35'0 0.1
2014-Oct-19 18:33S 32°59' W 071°35'0 0.0
2014-Oct-19 17:27S 32°59' W 071°35'0 0.0
2014-Oct-19 16:33S 32°59' W 071°35'0 0.0
2014-Oct-19 15:21S 32°59' W 071°35'0 0.0
2014-Oct-19 14:27S 32°59' W 071°35'0 0.0
2014-Oct-19 13:21S 32°59' W 071°35'0 0.0
2014-Oct-19 12:21S 32°59' W 071°35'0 0.0
2014-Oct-19 11:27S 32°59' W 071°35'0 0.0
2014-Oct-19 10:12S 32°59' W 071°35'0 0.1
2014-Oct-19 08:26S 32°59' W 071°34'7 8.2
2014-Oct-19 07:33S 32°58' W 071°43'11 0.4
2014-Oct-18 05:03S 32°56' W 071°56'816.2
2014-Oct-18 04:33S 32°48' W 071°58'  
Track history (hours):
 
Tides and Currents Weather Stations Pressure Air Temp Water Temp Dewpoint Dewpoint Depression Visibility Wind Speed Wind Dir Waves Ship Positions

Northern Highway

Last reported at 2014-Oct-21 03:34 UTC. Time now 2014-Oct-24 23:11 UTC.
Position S 32°52' W 071°51'.

Length 188 m; draft 7 m.

Type: Cargo ship. MMSI: 371608000.

Date/timePositionNaut miles runAvg speedWind from/ knotsBaromVisibWave heightAir tempDewpointWater temp
2014-Oct-21 03:34S 32°52' W 071°51'1515.2
2014-Oct-21 02:33S 32°60' W 071°36'1 0.9
2014-Oct-21 01:28S 33°01' W 071°36'0 0.1
2014-Oct-20 23:16S 33°01' W 071°36'0 0.0
2014-Oct-20 21:20S 33°01' W 071°36'0 0.0
2014-Oct-20 20:16S 33°01' W 071°36'0 0.0
2014-Oct-20 18:25S 33°01' W 071°36'0 0.1
2014-Oct-20 17:31S 33°01' W 071°36'0 0.0
2014-Oct-20 16:16S 33°01' W 071°36'0 0.0
2014-Oct-20 15:22S 33°01' W 071°36'0 0.0
2014-Oct-20 14:31S 33°01' W 071°36'0 0.0
2014-Oct-20 13:31S 33°01' W 071°36'0 0.0
2014-Oct-20 11:31S 33°01' W 071°36'0 0.0
2014-Oct-20 06:16S 33°01' W 071°36'0 0.0
2014-Oct-20 05:19S 33°01' W 071°36'0 0.0
2014-Oct-20 03:22S 33°01' W 071°36'0 0.0
2014-Oct-19 23:13S 33°01' W 071°36'0 0.1
2014-Oct-19 22:05S 33°01' W 071°36'2 3.1
2014-Oct-19 21:33S 32°59' W 071°35'0 0.1
2014-Oct-19 20:33S 32°59' W 071°35'0 0.0
2014-Oct-19 19:09S 32°59' W 071°35'0 0.1
2014-Oct-19 18:33S 32°59' W 071°35'0 0.0
2014-Oct-19 17:27S 32°59' W 071°35'0 0.0
2014-Oct-19 16:33S 32°59' W 071°35'0 0.0
2014-Oct-19 15:21S 32°59' W 071°35'0 0.0
2014-Oct-19 14:27S 32°59' W 071°35'0 0.0
2014-Oct-19 13:21S 32°59' W 071°35'0 0.0
2014-Oct-19 12:21S 32°59' W 071°35'0 0.0
2014-Oct-19 11:27S 32°59' W 071°35'0 0.0
2014-Oct-19 10:12S 32°59' W 071°35'0 0.1
2014-Oct-19 08:26S 32°59' W 071°34'7 8.2
2014-Oct-19 07:33S 32°58' W 071°43'11 0.4
2014-Oct-18 05:03S 32°56' W 071°56'816.2
2014-Oct-18 04:33S 32°48' W 071°58'  

Dump ship's entire track history